createdAt,value
2017-04-06T14:25:27.228Z,15.94
2017-04-06T14:26:13.896Z,16.13
2017-04-06T14:26:54.326Z,16.61
2017-04-06T14:27:34.721Z,16.32
2017-04-06T14:28:15.111Z,16.8
2017-04-06T14:28:55.631Z,16.71
2017-04-06T14:29:36.073Z,16.6
2017-04-06T14:30:16.477Z,16.5
2017-04-06T14:30:57.027Z,16.7
2017-04-06T14:31:37.391Z,16.9
2017-04-06T14:32:17.804Z,16.8
2017-04-06T14:32:58.295Z,16.9
2017-04-06T14:33:38.650Z,16.61
2017-04-06T14:34:19.023Z,16.52
2017-04-06T14:34:59.848Z,16.61
2017-04-06T14:35:40.265Z,16.8
2017-04-06T14:36:24.157Z,16.89
2017-04-06T14:37:06.427Z,17.08
2017-04-06T14:37:46.909Z,17.18
2017-04-06T14:38:27.331Z,17.37
2017-04-06T14:39:07.781Z,17.18
2017-04-06T14:39:48.543Z,17.27
2017-04-06T14:40:28.593Z,17.18
2017-04-06T14:41:09.534Z,17.37
2017-04-06T14:41:49.942Z,17.47
2017-04-06T14:42:30.386Z,17.18
2017-04-06T14:43:12.293Z,17.37
2017-04-06T14:43:52.718Z,17.37
2017-04-06T14:44:33.210Z,17.27
2017-04-06T14:45:13.790Z,17.08
2017-04-06T14:45:54.170Z,17.38
2017-04-06T14:46:35.033Z,17.37
2017-04-06T14:47:15.377Z,17.37
2017-04-06T14:47:56.034Z,17.27
2017-04-06T14:48:36.644Z,17.27
2017-04-06T14:49:18.160Z,17.37
2017-04-06T14:49:57.730Z,17.37
2017-04-06T14:50:39.668Z,17.37
2017-04-06T14:51:20.358Z,17.18
2017-04-06T14:52:00.889Z,17.37
2017-04-06T14:52:41.363Z,17.27
2017-04-06T14:53:21.993Z,17.08
2017-04-06T14:54:02.459Z,17.18
2017-04-06T14:54:42.947Z,17.76
2017-04-06T14:55:23.413Z,17.84
2017-04-06T14:56:03.729Z,17.84
2017-04-06T14:56:44.123Z,17.84
2017-04-06T14:57:24.623Z,17.84
2017-04-06T14:58:05.008Z,18.13
2017-04-06T14:58:45.457Z,18.13
2017-04-06T14:59:26.034Z,18.61
2017-04-06T15:00:06.293Z,18.42
2017-04-06T15:00:46.961Z,18.42
2017-04-06T15:01:27.437Z,18.32
2017-04-06T15:02:07.893Z,18.31
2017-04-06T15:04:09.762Z,18.7
2017-04-06T15:04:58.332Z,18.98
2017-04-06T15:05:46.947Z,18.98
2017-04-06T15:06:35.459Z,18.89
2017-04-06T15:07:24.152Z,18.89
2017-04-06T15:08:12.839Z,18.98
2017-04-06T15:09:01.483Z,18.89
2017-04-06T15:09:47.422Z,18.98
2017-04-06T15:10:29.619Z,19.08
2017-04-06T15:11:10.141Z,19.27
2017-04-06T15:11:50.583Z,19.18
2017-04-06T15:12:30.998Z,19.45
2017-04-06T15:13:11.420Z,19.56
2017-04-06T15:13:51.827Z,19.55
2017-04-06T15:14:32.253Z,19.36
2017-04-06T15:15:12.603Z,19.55
2017-04-06T15:15:53.117Z,19.65
2017-04-06T15:16:33.537Z,19.55
2017-04-06T15:17:13.933Z,19.74
2017-04-06T15:17:55.297Z,19.65
2017-04-06T15:18:35.813Z,20.03
2017-04-06T15:19:16.162Z,20.12
2017-04-06T15:19:56.507Z,20.02
2017-04-06T15:20:36.966Z,20.31
2017-04-06T15:21:17.414Z,19.93
2017-04-06T15:21:57.800Z,20.4
2017-04-06T15:22:38.233Z,20.12
2017-04-06T15:23:18.674Z,20.31
2017-04-06T15:23:59.062Z,20.4
2017-04-06T15:24:39.507Z,20.4
2017-04-06T15:25:19.898Z,20.12
2017-04-06T15:26:00.314Z,20.2
2017-04-06T15:26:40.735Z,20.29
2017-04-06T15:27:21.105Z,20.49
2017-04-06T15:28:01.512Z,20.39
2017-04-06T15:28:41.902Z,20.49
2017-04-06T15:29:22.353Z,20.49
2017-04-06T15:30:02.856Z,20.87
2017-04-06T15:30:43.422Z,20.87
2017-04-06T15:31:23.828Z,20.97
2017-04-06T15:32:04.324Z,20.87
2017-04-06T15:32:44.716Z,20.97
2017-04-06T15:33:25.109Z,20.87
2017-04-06T15:34:05.514Z,21.05
2017-04-06T15:34:45.932Z,21.15
2017-04-06T15:35:26.367Z,21.24
2017-04-06T15:36:06.789Z,21.15
2017-04-06T15:36:47.165Z,21.44
2017-04-06T15:37:27.560Z,21.62
2017-04-06T15:39:49.926Z,21.62
2017-04-06T15:40:38.312Z,21.44
2017-04-06T15:41:27.211Z,21.33
2017-04-06T15:42:15.330Z,21.81
2017-04-06T15:43:04.261Z,21.81
2017-04-06T15:43:52.664Z,21.81
2017-04-06T15:44:41.689Z,21.81
2017-04-06T15:45:29.932Z,21.61
2017-04-06T15:46:18.728Z,21.52
2017-04-06T15:47:08.262Z,21.91
2017-04-06T15:47:56.804Z,21.62
2017-04-06T15:48:45.494Z,21.62
2017-04-06T15:49:34.262Z,21.81
2017-04-06T15:50:22.953Z,22.11
2017-04-06T15:51:11.541Z,22.11
2017-04-06T15:52:00.792Z,22.2
2017-04-06T15:52:51.056Z,22.01
2017-04-06T15:53:39.803Z,22.3
2017-04-06T15:54:28.145Z,22.3
2017-04-06T15:55:17.001Z,22.3
2017-04-06T15:56:06.227Z,22.87
2017-04-06T15:56:56.277Z,22.47
2017-04-06T15:57:44.740Z,22.47
2017-04-06T15:58:33.074Z,22.67
2017-04-06T15:59:21.737Z,22.76
2017-04-06T16:00:10.681Z,22.67
2017-04-06T16:00:58.865Z,22.96
2017-04-06T16:01:48.392Z,23.14
2017-04-06T16:02:38.685Z,23.14
2017-04-06T19:16:54.970Z,40.69
2017-04-06T19:17:40.349Z,40.59
2017-04-06T19:18:22.136Z,40.43
2017-04-06T19:19:06.960Z,40.41
2017-04-06T19:19:53.349Z,40.5
2017-04-06T19:20:39.177Z,40.59
2017-04-06T19:21:24.683Z,40.98
2017-04-06T19:22:05.786Z,40.98
2017-04-06T19:22:50.276Z,41.07
2017-04-06T19:23:32.135Z,41.26
2017-04-06T19:24:14.868Z,41.46
2017-04-06T19:24:58.590Z,41.55
2017-04-06T19:25:40.338Z,41.36
2017-04-06T19:26:23.023Z,42.02
2017-04-06T19:27:09.783Z,42.02
2017-04-06T19:27:50.423Z,41.93
2017-04-06T19:28:36.571Z,42.02
2017-04-06T19:29:21.733Z,42.4
2017-04-06T19:30:10.136Z,42.21
2017-04-06T19:30:51.819Z,42.31
2017-04-06T19:31:52.428Z,42.31
2017-04-06T19:32:43.413Z,42.79
2017-04-06T19:33:45.892Z,42.47
2017-04-06T19:36:17.223Z,43.24
2017-04-06T19:37:11.940Z,43.05
2017-04-06T19:37:56.863Z,43.14
2017-04-06T19:38:44.525Z,43.14
2017-04-06T19:39:25.933Z,43.33
2017-04-06T19:40:08.240Z,43.33
2017-04-06T19:40:49.661Z,43.14
2017-04-06T19:44:26.403Z,44
2017-04-06T19:45:32.441Z,44.57
2017-04-06T19:50:55.913Z,44.47
2017-04-06T19:51:47.974Z,44.47
2017-04-06T19:52:43.129Z,44.76
2017-04-06T19:53:39.716Z,44.38
2017-04-06T19:54:33.011Z,44.28
2017-04-06T19:55:34.930Z,44.76
2017-04-06T19:58:08.778Z,45.04
2017-04-06T19:58:54.457Z,44.85
2017-04-06T19:59:39.132Z,44.95
2017-04-06T20:00:20.769Z,45.14
2017-04-06T20:01:07.477Z,45.33
2017-04-06T20:01:50.123Z,45.33
2017-04-06T20:02:39.458Z,45.33
2017-04-06T20:03:23.974Z,45.42
2017-04-06T20:04:09.313Z,45.23
2017-04-06T20:04:51.178Z,45.33
2017-04-06T20:05:35.553Z,45.42
2017-04-06T20:06:16.328Z,45.8
2017-04-06T20:07:03.647Z,45.59
2017-04-06T20:08:46.772Z,45.78
2017-04-06T20:09:32.275Z,45.87
2017-04-06T20:10:18.770Z,45.97
2017-04-06T20:11:05.231Z,46.06
2017-04-06T20:13:23.642Z,45.97
2017-04-06T20:14:04.206Z,46.16
2017-04-06T20:14:44.893Z,46.92
2017-04-06T20:15:25.861Z,46.64
2017-04-06T20:16:06.572Z,46.54
2017-04-06T20:16:51.374Z,46.73
2017-04-06T20:17:36.145Z,46.54
2017-04-06T20:18:17.401Z,46.73
2017-04-06T20:19:03.671Z,46.54
2017-04-06T20:19:52.362Z,46.54
2017-04-06T20:20:37.526Z,46.64
2017-04-06T20:21:22.536Z,47.11
2017-04-06T20:22:09.676Z,47.11
2017-04-06T20:22:56.556Z,47.02
2017-04-06T20:24:48.737Z,47.02
2017-04-06T20:27:23.164Z,47.11
2017-04-06T20:28:13.413Z,47.49
2017-04-06T20:29:04.363Z,47.49
2017-04-06T20:29:53.411Z,47.3
2017-04-06T20:30:42.873Z,47.58
2017-04-06T20:36:35.843Z,47.11
2017-04-06T20:37:24.768Z,47.3
2017-04-06T20:38:13.884Z,47.3
2017-04-06T20:39:03.893Z,47.49
2017-04-06T20:39:52.404Z,47.3
2017-04-06T20:40:41.067Z,47.39
2017-04-06T20:41:29.903Z,47.39
2017-04-06T20:42:23.585Z,47.49
2017-04-06T20:44:26.773Z,47.68
2017-04-06T20:45:18.469Z,47.58
2017-04-06T20:46:11.660Z,47.49
2017-04-06T20:47:08.219Z,47.68
2017-04-06T20:49:07.271Z,47.58
2017-04-06T20:49:55.911Z,47.97
2017-04-06T20:50:45.294Z,47.77
2017-04-06T20:51:33.622Z,47.97
2017-04-06T20:52:22.208Z,47.58
2017-04-06T20:53:11.133Z,47.61
2017-04-06T20:54:00.168Z,47.71
2017-04-06T20:54:48.548Z,47.8
2017-04-06T20:55:37.219Z,47.71
2017-04-06T20:56:26.032Z,47.8
2017-04-06T20:57:15.679Z,47.71
2017-04-06T20:58:04.218Z,47.71
2017-04-06T20:58:52.744Z,47.89
2017-04-06T20:59:41.613Z,47.8
2017-04-06T21:00:31.519Z,47.8
2017-04-06T21:01:23.331Z,47.71
